PWSweather.com
Personal Weather Stations
Station Observations
COONRAPIDS
Minneapolis, MN 55433

Minneapolis, MN 55433

Lat: 45.187721, Lon: -93.36828

Elevation: 898

Station Type: Davis Vantage Pro 2

High Low Average
Temperature 30.2°F-1.0°C 21.8°F-5.7°C 26.2°F-3.2°C
Dew Point 19.8°F-6.8°C 16.3°F-8.7°C 18.2°F-7.7°C
Winds 5.8 mph 9.3 kmh Calm Calm 1.0 mph SSE1.6 kmh SSE
Wind Gusts 11.5 mph18.5 kmh -- 2.0 mph3.2 kmh
Humidity 81% 61% 72%
Pressure 30.15 in1021.0 mb 29.77 in1008.1 mb -
Precipitation 0.00 in0.0 mm - -
Hour Temp Dew Point Humidity Winds Wind Gusts Pressure Precip Precip Rate Daily Precip Total
12:00 AM 26.6°F-3.0°C 18.5°F-7.5°C 71% 1.2 mph SW1.9 kmh SW 4.6 mph7.4 kmh 29.78 in1008.5 mb - 0.00 in0.0 mm 0.00 in0.0 mm
12:10 AM 26.8°F-2.9°C 18.3°F-7.6°C 70% 3.5 mph SW5.6 kmh SW 4.6 mph7.4 kmh 29.77 in1008.1 mb - 0.00 in0.0 mm 0.00 in0.0 mm
12:20 AM 26.9°F-2.8°C 18.4°F-7.6°C 70% 4.6 mph WSW7.4 kmh WSW 10.4 mph16.7 kmh 29.78 in1008.5 mb - 0.00 in0.0 mm 0.00 in0.0 mm
12:30 AM 27.0°F-2.8°C 18.2°F-7.7°C 69% 2.3 mph SW3.7 kmh SW 3.5 mph5.6 kmh 29.78 in1008.5 mb - 0.00 in0.0 mm 0.00 in0.0 mm
12:40 AM 26.6°F-3.0°C 18.1°F-7.7°C 70% 2.3 mph SW3.7 kmh SW 5.8 mph9.3 kmh 29.79 in1008.8 mb - 0.00 in0.0 mm 0.00 in0.0 mm
12:50 AM 26.3°F-3.2°C 18.2°F-7.7°C 71% 3.5 mph SW5.6 kmh SW 8.1 mph13.0 kmh 29.80 in1009.1 mb - 0.00 in0.0 mm 0.00 in0.0 mm
01:00 AM 26.4°F-3.1°C 17.9°F-7.8°C 70% 3.5 mph SW5.6 kmh SW 5.8 mph9.3 kmh 29.79 in1008.8 mb - 0.00 in0.0 mm 0.00 in0.0 mm
01:10 AM 26.3°F-3.2°C 17.8°F-7.9°C 70% 2.3 mph SW3.7 kmh SW 5.8 mph9.3 kmh 29.79 in1008.8 mb - 0.00 in0.0 mm 0.00 in0.0 mm
01:20 AM 26.1°F-3.3°C 18.0°F-7.8°C 71% 1.2 mph SW1.9 kmh SW 4.6 mph7.4 kmh 29.80 in1009.1 mb - 0.00 in0.0 mm 0.00 in0.0 mm
01:30 AM 26.0°F-3.3°C 17.9°F-7.8°C 71% 2.3 mph WSW3.7 kmh WSW 4.6 mph7.4 kmh 29.80 in1009.1 mb - 0.00 in0.0 mm 0.00 in0.0 mm
01:40 AM 25.9°F-3.4°C 17.8°F-7.9°C 71% 5.8 mph SW9.3 kmh SW 8.1 mph13.0 kmh 29.80 in1009.1 mb - 0.00 in0.0 mm 0.00 in0.0 mm
01:50 AM 25.8°F-3.4°C 17.7°F-7.9°C 71% 1.2 mph WSW1.9 kmh WSW 10.4 mph16.7 kmh 29.81 in1009.5 mb - 0.00 in0.0 mm 0.00 in0.0 mm
02:00 AM 25.8°F-3.4°C 17.7°F-7.9°C 71% 2.3 mph SW3.7 kmh SW 8.1 mph13.0 kmh 29.81 in1009.5 mb - 0.00 in0.0 mm 0.00 in0.0 mm
02:10 AM 25.8°F-3.4°C 17.7°F-7.9°C 71% 4.6 mph WSW7.4 kmh WSW 11.5 mph18.5 kmh 29.81 in1009.5 mb - 0.00 in0.0 mm 0.00 in0.0 mm
02:20 AM 25.6°F-3.6°C 17.8°F-7.9°C 72% 2.3 mph SW3.7 kmh SW 5.8 mph9.3 kmh 29.82 in1009.8 mb - 0.00 in0.0 mm 0.00 in0.0 mm
02:30 AM 25.7°F-3.5°C 17.9°F-7.8°C 72% 1.2 mph WSW1.9 kmh WSW 5.8 mph9.3 kmh 29.82 in1009.8 mb - 0.00 in0.0 mm 0.00 in0.0 mm
02:40 AM 25.7°F-3.5°C 17.6°F-8.0°C 71% 1.2 mph WSW1.9 kmh WSW 3.5 mph5.6 kmh 29.82 in1009.8 mb - 0.00 in0.0 mm 0.00 in0.0 mm
02:50 AM 25.6°F-3.6°C 17.8°F-7.9°C 72% Calm Calm 2.3 mph3.7 kmh 29.83 in1010.2 mb - 0.00 in0.0 mm 0.00 in0.0 mm
03:00 AM 25.4°F-3.7°C 17.6°F-8.0°C 72% 1.2 mph SW1.9 kmh SW 3.5 mph5.6 kmh 29.84 in1010.5 mb - 0.00 in0.0 mm 0.00 in0.0 mm
03:10 AM 25.3°F-3.7°C 17.5°F-8.1°C 72% Calm Calm -- 29.84 in1010.5 mb - 0.00 in0.0 mm 0.00 in0.0 mm
03:20 AM 25.2°F-3.8°C 17.7°F-7.9°C 73% 1.2 mph WSW1.9 kmh WSW 3.5 mph5.6 kmh 29.84 in1010.5 mb - 0.00 in0.0 mm 0.00 in0.0 mm
03:30 AM 25.1°F-3.8°C 17.6°F-8.0°C 73% 1.2 mph WSW1.9 kmh WSW 3.5 mph5.6 kmh 29.85 in1010.8 mb - 0.00 in0.0 mm 0.00 in0.0 mm
03:40 AM 25.0°F-3.9°C 17.5°F-8.1°C 73% 2.3 mph WSW3.7 kmh WSW 4.6 mph7.4 kmh 29.85 in1010.8 mb - 0.00 in0.0 mm 0.00 in0.0 mm
03:50 AM 24.7°F-4.1°C 17.6°F-8.0°C 74% Calm Calm 3.5 mph5.6 kmh 29.86 in1011.2 mb - 0.00 in0.0 mm 0.00 in0.0 mm
04:00 AM 24.4°F-4.2°C 17.3°F-8.2°C 74% Calm Calm -- 29.86 in1011.2 mb - 0.00 in0.0 mm 0.00 in0.0 mm
04:10 AM 24.3°F-4.3°C 17.2°F-8.2°C 74% 1.2 mph W1.9 kmh W 3.5 mph5.6 kmh 29.86 in1011.2 mb - 0.00 in0.0 mm 0.00 in0.0 mm
04:20 AM 24.3°F-4.3°C 17.5°F-8.1°C 75% 1.2 mph WSW1.9 kmh WSW 3.5 mph5.6 kmh 29.86 in1011.2 mb - 0.00 in0.0 mm 0.00 in0.0 mm
04:30 AM 24.2°F-4.3°C 17.4°F-8.1°C 75% Calm Calm -- 29.86 in1011.2 mb - 0.00 in0.0 mm 0.00 in0.0 mm
04:40 AM 24.0°F-4.4°C 17.2°F-8.2°C 75% Calm Calm -- 29.87 in1011.5 mb - 0.00 in0.0 mm 0.00 in0.0 mm
04:50 AM 23.8°F-4.6°C 17.3°F-8.2°C 76% Calm Calm -- 29.87 in1011.5 mb - 0.00 in0.0 mm 0.00 in0.0 mm
05:00 AM 23.6°F-4.7°C 17.2°F-8.2°C 76% Calm Calm -- 29.88 in1011.9 mb - 0.00 in0.0 mm 0.00 in0.0 mm
05:10 AM 23.4°F-4.8°C 17.3°F-8.2°C 77% Calm Calm -- 29.88 in1011.9 mb - 0.00 in0.0 mm 0.00 in0.0 mm
05:20 AM 23.2°F-4.9°C 17.1°F-8.3°C 77% Calm Calm -- 29.89 in1012.2 mb - 0.00 in0.0 mm 0.00 in0.0 mm
05:30 AM 23.1°F-4.9°C 17.3°F-8.2°C 78% Calm Calm -- 29.89 in1012.2 mb - 0.00 in0.0 mm 0.00 in0.0 mm
05:40 AM 22.9°F-5.1°C 17.1°F-8.3°C 78% Calm Calm -- 29.90 in1012.5 mb - 0.00 in0.0 mm 0.00 in0.0 mm
05:50 AM 22.7°F-5.2°C 16.9°F-8.4°C 78% Calm Calm -- 29.90 in1012.5 mb - 0.00 in0.0 mm 0.00 in0.0 mm
06:00 AM 22.5°F-5.3°C 16.7°F-8.5°C 78% Calm Calm -- 29.90 in1012.5 mb - 0.00 in0.0 mm 0.00 in0.0 mm
06:10 AM 22.1°F-5.5°C 16.3°F-8.7°C 78% Calm Calm -- 29.91 in1012.9 mb - 0.00 in0.0 mm 0.00 in0.0 mm
06:20 AM 22.0°F-5.6°C 16.5°F-8.6°C 79% Calm Calm -- 29.92 in1013.2 mb - 0.00 in0.0 mm 0.00 in0.0 mm
06:30 AM 21.8°F-5.7°C 16.6°F-8.6°C 80% Calm Calm -- 29.93 in1013.5 mb - 0.00 in0.0 mm 0.00 in0.0 mm
06:40 AM 22.0°F-5.6°C 16.8°F-8.4°C 80% Calm Calm -- 29.93 in1013.5 mb - 0.00 in0.0 mm 0.00 in0.0 mm
06:50 AM 22.4°F-5.3°C 17.2°F-8.2°C 80% Calm Calm -- 29.93 in1013.5 mb - 0.00 in0.0 mm 0.00 in0.0 mm
07:00 AM 22.7°F-5.2°C 17.5°F-8.1°C 80% Calm Calm -- 29.94 in1013.9 mb - 0.00 in0.0 mm 0.00 in0.0 mm
07:10 AM 22.9°F-5.1°C 17.4°F-8.1°C 79% Calm Calm -- 29.95 in1014.2 mb - 0.00 in0.0 mm 0.00 in0.0 mm
07:20 AM 23.1°F-4.9°C 17.6°F-8.0°C 79% Calm Calm -- 29.95 in1014.2 mb - 0.00 in0.0 mm 0.00 in0.0 mm
07:30 AM 23.1°F-4.9°C 17.6°F-8.0°C 79% Calm Calm -- 29.95 in1014.2 mb - 0.00 in0.0 mm 0.00 in0.0 mm
07:40 AM 23.1°F-4.9°C 17.5°F-8.1°C 79% Calm Calm -- 29.96 in1014.6 mb - 0.00 in0.0 mm 0.00 in0.0 mm
07:50 AM 22.9°F-5.1°C 17.4°F-8.1°C 79% Calm Calm -- 29.97 in1014.9 mb - 0.00 in0.0 mm 0.00 in0.0 mm
08:00 AM 22.6°F-5.2°C 17.1°F-8.3°C 79% Calm Calm -- 29.97 in1014.9 mb - 0.00 in0.0 mm 0.00 in0.0 mm
08:10 AM 22.4°F-5.3°C 17.2°F-8.2°C 80% Calm Calm -- 29.98 in1015.2 mb - 0.00 in0.0 mm 0.00 in0.0 mm
08:20 AM 22.2°F-5.4°C 17.0°F-8.3°C 80% Calm Calm -- 29.98 in1015.2 mb - 0.00 in0.0 mm 0.00 in0.0 mm
08:30 AM 22.1°F-5.5°C 17.2°F-8.2°C 81% Calm Calm -- 29.99 in1015.6 mb - 0.00 in0.0 mm 0.00 in0.0 mm
08:40 AM 22.3°F-5.4°C 17.4°F-8.1°C 81% Calm Calm -- 30.00 in1015.9 mb - 0.00 in0.0 mm 0.00 in0.0 mm
08:50 AM 22.7°F-5.2°C 17.5°F-8.1°C 80% Calm Calm -- 30.00 in1015.9 mb - 0.00 in0.0 mm 0.00 in0.0 mm
09:00 AM 23.0°F-5.0°C 17.7°F-7.9°C 80% Calm Calm -- 30.01 in1016.3 mb - 0.00 in0.0 mm 0.00 in0.0 mm
09:10 AM 23.4°F-4.8°C 17.8°F-7.9°C 79% Calm Calm -- 30.01 in1016.3 mb - 0.00 in0.0 mm 0.00 in0.0 mm
09:20 AM 23.6°F-4.7°C 17.7°F-7.9°C 78% Calm Calm -- 30.01 in1016.3 mb - 0.00 in0.0 mm 0.00 in0.0 mm
09:30 AM 24.2°F-4.3°C 18.3°F-7.6°C 78% 1.2 mph WSW1.9 kmh WSW 5.8 mph9.3 kmh 30.02 in1016.6 mb - 0.00 in0.0 mm 0.00 in0.0 mm
09:40 AM 24.6°F-4.1°C 18.1°F-7.7°C 76% Calm Calm -- 30.02 in1016.6 mb - 0.00 in0.0 mm 0.00 in0.0 mm
09:50 AM 25.2°F-3.8°C 18.7°F-7.4°C 76% Calm Calm 3.5 mph5.6 kmh 30.03 in1016.9 mb - 0.00 in0.0 mm 0.00 in0.0 mm
10:00 AM 25.5°F-3.6°C 18.7°F-7.4°C 75% 1.2 mph WNW1.9 kmh WNW 3.5 mph5.6 kmh 30.04 in1017.3 mb - 0.00 in0.0 mm 0.00 in0.0 mm
10:10 AM 25.9°F-3.4°C 18.7°F-7.4°C 74% 2.3 mph WNW3.7 kmh WNW 3.5 mph5.6 kmh 30.04 in1017.3 mb - 0.00 in0.0 mm 0.00 in0.0 mm
10:20 AM 26.3°F-3.2°C 18.8°F-7.3°C 73% 1.2 mph W1.9 kmh W 1.2 mph1.9 kmh 30.05 in1017.6 mb - 0.00 in0.0 mm 0.00 in0.0 mm
10:30 AM 26.7°F-2.9°C 19.2°F-7.1°C 73% Calm Calm -- 30.06 in1017.9 mb - 0.00 in0.0 mm 0.00 in0.0 mm
10:40 AM 27.1°F-2.7°C 19.3°F-7.1°C 72% Calm Calm -- 30.06 in1017.9 mb - 0.00 in0.0 mm 0.00 in0.0 mm
10:50 AM 27.6°F-2.4°C 19.8°F-6.8°C 72% Calm Calm -- 30.06 in1017.9 mb - 0.00 in0.0 mm 0.00 in0.0 mm
11:00 AM 27.9°F-2.3°C 19.4°F-7.0°C 70% Calm Calm -- 30.06 in1017.9 mb - 0.00 in0.0 mm 0.00 in0.0 mm
11:10 AM 28.1°F-2.2°C 19.5°F-6.9°C 70% Calm Calm -- 30.06 in1017.9 mb - 0.00 in0.0 mm 0.00 in0.0 mm
11:20 AM 28.7°F-1.8°C 19.8°F-6.8°C 69% Calm Calm -- 30.06 in1017.9 mb - 0.00 in0.0 mm 0.00 in0.0 mm
11:30 AM 29.4°F-1.4°C 19.8°F-6.8°C 67% 2.3 mph NNE3.7 kmh NNE 6.9 mph11.1 kmh 30.05 in1017.6 mb - 0.00 in0.0 mm 0.00 in0.0 mm
11:40 AM 29.4°F-1.4°C 19.1°F-7.2°C 65% 2.3 mph NE3.7 kmh NE 3.5 mph5.6 kmh 30.05 in1017.6 mb - 0.00 in0.0 mm 0.00 in0.0 mm
11:50 AM 29.1°F-1.6°C 19.2°F-7.1°C 66% Calm Calm -- 30.05 in1017.6 mb - 0.00 in0.0 mm 0.00 in0.0 mm
12:00 PM 29.6°F-1.3°C 19.2°F-7.1°C 65% 2.3 mph NE3.7 kmh NE 3.5 mph5.6 kmh 30.06 in1017.9 mb - 0.00 in0.0 mm 0.00 in0.0 mm
12:10 PM 29.4°F-1.4°C 18.7°F-7.4°C 64% Calm Calm -- 30.06 in1017.9 mb - 0.00 in0.0 mm 0.00 in0.0 mm
12:20 PM 29.6°F-1.3°C 19.3°F-7.1°C 65% Calm Calm 3.5 mph5.6 kmh 30.06 in1017.9 mb - 0.00 in0.0 mm 0.00 in0.0 mm
12:30 PM 29.5°F-1.4°C 19.2°F-7.1°C 65% Calm Calm 3.5 mph5.6 kmh 30.06 in1017.9 mb - 0.00 in0.0 mm 0.00 in0.0 mm
12:40 PM 29.2°F-1.6°C 18.9°F-7.3°C 65% Calm Calm -- 30.05 in1017.6 mb - 0.00 in0.0 mm 0.00 in0.0 mm
12:50 PM 29.5°F-1.4°C 19.2°F-7.1°C 65% Calm Calm 2.3 mph3.7 kmh 30.06 in1017.9 mb - 0.00 in0.0 mm 0.00 in0.0 mm
01:00 PM 29.5°F-1.4°C 19.2°F-7.1°C 65% Calm Calm 1.2 mph1.9 kmh 30.05 in1017.6 mb - 0.00 in0.0 mm 0.00 in0.0 mm
01:10 PM 29.2°F-1.6°C 18.9°F-7.3°C 65% Calm Calm -- 30.05 in1017.6 mb - 0.00 in0.0 mm 0.00 in0.0 mm
01:20 PM 29.7°F-1.3°C 19.4°F-7.0°C 65% Calm Calm -- 30.05 in1017.6 mb - 0.00 in0.0 mm 0.00 in0.0 mm
01:30 PM 29.9°F-1.2°C 18.8°F-7.3°C 63% 2.3 mph NE3.7 kmh NE 3.5 mph5.6 kmh 30.05 in1017.6 mb - 0.00 in0.0 mm 0.00 in0.0 mm
01:40 PM 29.4°F-1.4°C 18.3°F-7.6°C 63% Calm Calm -- 30.05 in1017.6 mb - 0.00 in0.0 mm 0.00 in0.0 mm
01:50 PM 29.3°F-1.5°C 18.3°F-7.6°C 63% Calm Calm -- 30.06 in1017.9 mb - 0.00 in0.0 mm 0.00 in0.0 mm
02:00 PM 29.4°F-1.4°C 18.3°F-7.6°C 63% Calm Calm -- 30.05 in1017.6 mb - 0.00 in0.0 mm 0.00 in0.0 mm
02:10 PM 29.7°F-1.3°C 19.0°F-7.2°C 64% Calm Calm -- 30.06 in1017.9 mb - 0.00 in0.0 mm 0.00 in0.0 mm
02:20 PM 30.1°F-1.1°C 18.6°F-7.4°C 62% Calm Calm -- 30.07 in1018.3 mb - 0.00 in0.0 mm 0.00 in0.0 mm
02:30 PM 30.2°F-1.0°C 18.4°F-7.6°C 61% Calm Calm 3.5 mph5.6 kmh 30.06 in1017.9 mb - 0.00 in0.0 mm 0.00 in0.0 mm
02:40 PM 30.2°F-1.0°C 18.7°F-7.4°C 62% Calm Calm -- 30.07 in1018.3 mb - 0.00 in0.0 mm 0.00 in0.0 mm
02:50 PM 30.1°F-1.1°C 19.0°F-7.2°C 63% Calm Calm 2.3 mph3.7 kmh 30.07 in1018.3 mb - 0.00 in0.0 mm 0.00 in0.0 mm
03:00 PM 30.2°F-1.0°C 18.7°F-7.4°C 62% Calm Calm 4.6 mph7.4 kmh 30.08 in1018.6 mb - 0.00 in0.0 mm 0.00 in0.0 mm
03:10 PM 30.0°F-1.1°C 18.5°F-7.5°C 62% 1.2 mph NE1.9 kmh NE 3.5 mph5.6 kmh 30.08 in1018.6 mb - 0.00 in0.0 mm 0.00 in0.0 mm
03:20 PM 29.8°F-1.2°C 18.4°F-7.6°C 62% 2.3 mph NE3.7 kmh NE 3.5 mph5.6 kmh 30.09 in1019.0 mb - 0.00 in0.0 mm 0.00 in0.0 mm
03:30 PM 29.3°F-1.5°C 18.3°F-7.6°C 63% Calm Calm -- 30.09 in1019.0 mb - 0.00 in0.0 mm 0.00 in0.0 mm
03:40 PM 29.0°F-1.7°C 18.3°F-7.6°C 64% 2.3 mph NE3.7 kmh NE 4.6 mph7.4 kmh 30.09 in1019.0 mb - 0.00 in0.0 mm 0.00 in0.0 mm
03:50 PM 28.9°F-1.7°C 18.6°F-7.4°C 65% 1.2 mph ENE1.9 kmh ENE 4.6 mph7.4 kmh 30.09 in1019.0 mb - 0.00 in0.0 mm 0.00 in0.0 mm
04:00 PM 28.7°F-1.8°C 18.4°F-7.6°C 65% 1.2 mph ENE1.9 kmh ENE 3.5 mph5.6 kmh 30.10 in1019.3 mb - 0.00 in0.0 mm 0.00 in0.0 mm
04:10 PM 28.3°F-2.1°C 18.0°F-7.8°C 65% 1.2 mph NE1.9 kmh NE 4.6 mph7.4 kmh 30.09 in1019.0 mb - 0.00 in0.0 mm 0.00 in0.0 mm
04:20 PM 28.0°F-2.2°C 18.1°F-7.7°C 66% 1.2 mph NE1.9 kmh NE 1.2 mph1.9 kmh 30.10 in1019.3 mb - 0.00 in0.0 mm 0.00 in0.0 mm
04:30 PM 27.8°F-2.3°C 17.9°F-7.8°C 66% Calm Calm -- 30.10 in1019.3 mb - 0.00 in0.0 mm 0.00 in0.0 mm
04:40 PM 27.6°F-2.4°C 18.1°F-7.7°C 67% 1.2 mph NE1.9 kmh NE -- 30.10 in1019.3 mb - 0.00 in0.0 mm 0.00 in0.0 mm
04:50 PM 27.6°F-2.4°C 18.1°F-7.7°C 67% Calm Calm -- 30.11 in1019.6 mb - 0.00 in0.0 mm 0.00 in0.0 mm
05:00 PM 27.4°F-2.6°C 18.2°F-7.7°C 68% Calm Calm -- 30.11 in1019.6 mb - 0.00 in0.0 mm 0.00 in0.0 mm
05:10 PM 27.2°F-2.7°C 18.4°F-7.6°C 69% Calm Calm -- 30.11 in1019.6 mb - 0.00 in0.0 mm 0.00 in0.0 mm
05:20 PM 27.1°F-2.7°C 18.3°F-7.6°C 69% Calm Calm -- 30.12 in1020.0 mb - 0.00 in0.0 mm 0.00 in0.0 mm
05:30 PM 26.9°F-2.8°C 18.4°F-7.6°C 70% Calm Calm -- 30.12 in1020.0 mb - 0.00 in0.0 mm 0.00 in0.0 mm
05:40 PM 26.6°F-3.0°C 18.1°F-7.7°C 70% Calm Calm -- 30.12 in1020.0 mb - 0.00 in0.0 mm 0.00 in0.0 mm
05:50 PM 26.3°F-3.2°C 18.2°F-7.7°C 71% Calm Calm -- 30.13 in1020.3 mb - 0.00 in0.0 mm 0.00 in0.0 mm
06:00 PM 26.4°F-3.1°C 18.3°F-7.6°C 71% Calm Calm -- 30.13 in1020.3 mb - 0.00 in0.0 mm 0.00 in0.0 mm
06:10 PM 26.6°F-3.0°C 18.5°F-7.5°C 71% Calm Calm -- 30.13 in1020.3 mb - 0.00 in0.0 mm 0.00 in0.0 mm
06:20 PM 26.7°F-2.9°C 18.5°F-7.5°C 71% Calm Calm -- 30.14 in1020.7 mb - 0.00 in0.0 mm 0.00 in0.0 mm
06:30 PM 26.7°F-2.9°C 18.2°F-7.7°C 70% Calm Calm -- 30.14 in1020.7 mb - 0.00 in0.0 mm 0.00 in0.0 mm
06:40 PM 26.7°F-2.9°C 18.6°F-7.4°C 71% Calm Calm -- 30.14 in1020.7 mb - 0.00 in0.0 mm 0.00 in0.0 mm
06:50 PM 26.7°F-2.9°C 18.3°F-7.6°C 70% 1.2 mph NE1.9 kmh NE 1.2 mph1.9 kmh 30.14 in1020.7 mb - 0.00 in0.0 mm 0.00 in0.0 mm
07:00 PM 26.7°F-2.9°C 18.2°F-7.7°C 70% Calm Calm -- 30.13 in1020.3 mb - 0.00 in0.0 mm 0.00 in0.0 mm
07:10 PM 26.6°F-3.0°C 18.5°F-7.5°C 71% 2.3 mph ENE3.7 kmh ENE 4.6 mph7.4 kmh 30.13 in1020.3 mb - 0.00 in0.0 mm 0.00 in0.0 mm
07:20 PM 26.6°F-3.0°C 18.5°F-7.5°C 71% 1.2 mph NE1.9 kmh NE 2.3 mph3.7 kmh 30.12 in1020.0 mb - 0.00 in0.0 mm 0.00 in0.0 mm
07:30 PM 26.5°F-3.1°C 18.4°F-7.6°C 71% Calm Calm -- 30.13 in1020.3 mb - 0.00 in0.0 mm 0.00 in0.0 mm
07:40 PM 26.4°F-3.1°C 18.3°F-7.6°C 71% 1.2 mph NE1.9 kmh NE 3.5 mph5.6 kmh 30.14 in1020.7 mb - 0.00 in0.0 mm 0.00 in0.0 mm
07:50 PM 26.4°F-3.1°C 18.3°F-7.6°C 71% Calm Calm -- 30.14 in1020.7 mb - 0.00 in0.0 mm 0.00 in0.0 mm
08:00 PM 26.3°F-3.2°C 18.2°F-7.7°C 71% Calm Calm -- 30.15 in1021.0 mb - 0.00 in0.0 mm 0.00 in0.0 mm
08:10 PM 26.1°F-3.3°C 18.3°F-7.6°C 72% Calm Calm -- 30.14 in1020.7 mb - 0.00 in0.0 mm 0.00 in0.0 mm
08:20 PM 26.1°F-3.3°C 18.3°F-7.6°C 72% Calm Calm -- 30.14 in1020.7 mb - 0.00 in0.0 mm 0.00 in0.0 mm
08:30 PM 26.1°F-3.3°C 18.3°F-7.6°C 72% Calm Calm -- 30.14 in1020.7 mb - 0.00 in0.0 mm 0.00 in0.0 mm
08:40 PM 26.1°F-3.3°C 18.3°F-7.6°C 72% Calm Calm -- 30.14 in1020.7 mb - 0.00 in0.0 mm 0.00 in0.0 mm
08:50 PM 26.1°F-3.3°C 18.6°F-7.4°C 73% 1.2 mph ENE1.9 kmh ENE 3.5 mph5.6 kmh 30.13 in1020.3 mb - 0.00 in0.0 mm 0.00 in0.0 mm
09:00 PM 26.0°F-3.3°C 18.5°F-7.5°C 73% Calm Calm -- 30.13 in1020.3 mb - 0.00 in0.0 mm 0.00 in0.0 mm
09:10 PM 25.8°F-3.4°C 18.3°F-7.6°C 73% Calm Calm 2.3 mph3.7 kmh 30.13 in1020.3 mb - 0.00 in0.0 mm 0.00 in0.0 mm
09:20 PM 25.8°F-3.4°C 18.3°F-7.6°C 73% Calm Calm -- 30.13 in1020.3 mb - 0.00 in0.0 mm 0.00 in0.0 mm
09:30 PM 25.8°F-3.4°C 18.3°F-7.6°C 73% Calm Calm 2.3 mph3.7 kmh 30.13 in1020.3 mb - 0.00 in0.0 mm 0.00 in0.0 mm
09:40 PM 25.8°F-3.4°C 18.7°F-7.4°C 74% Calm Calm -- 30.13 in1020.3 mb - 0.00 in0.0 mm 0.00 in0.0 mm
09:50 PM 26.0°F-3.3°C 18.8°F-7.3°C 74% Calm Calm -- 30.13 in1020.3 mb - 0.00 in0.0 mm 0.00 in0.0 mm
10:00 PM 26.1°F-3.3°C 19.0°F-7.2°C 74% Calm Calm -- 30.13 in1020.3 mb - 0.00 in0.0 mm 0.00 in0.0 mm
10:10 PM 26.3°F-3.2°C 18.8°F-7.3°C 73% Calm Calm -- 30.13 in1020.3 mb - 0.00 in0.0 mm 0.00 in0.0 mm
10:20 PM 26.4°F-3.1°C 18.9°F-7.3°C 73% Calm Calm -- 30.13 in1020.3 mb - 0.00 in0.0 mm 0.00 in0.0 mm
10:30 PM 26.6°F-3.0°C 19.1°F-7.2°C 73% Calm Calm -- 30.13 in1020.3 mb - 0.00 in0.0 mm 0.00 in0.0 mm
10:40 PM 26.7°F-2.9°C 19.2°F-7.1°C 73% Calm Calm -- 30.14 in1020.7 mb - 0.00 in0.0 mm 0.00 in0.0 mm
10:50 PM 26.9°F-2.8°C 19.4°F-7.0°C 73% Calm Calm -- 30.14 in1020.7 mb - 0.00 in0.0 mm 0.00 in0.0 mm
11:00 PM 26.9°F-2.8°C 19.4°F-7.0°C 73% Calm Calm -- 30.14 in1020.7 mb - 0.00 in0.0 mm 0.00 in0.0 mm
11:10 PM 27.0°F-2.8°C 19.5°F-6.9°C 73% Calm Calm -- 30.14 in1020.7 mb - 0.00 in0.0 mm 0.00 in0.0 mm
11:20 PM 27.1°F-2.7°C 19.3°F-7.1°C 72% Calm Calm -- 30.14 in1020.7 mb - 0.00 in0.0 mm 0.00 in0.0 mm
11:30 PM 27.2°F-2.7°C 19.3°F-7.1°C 72% Calm Calm 1.2 mph1.9 kmh 30.14 in1020.7 mb - 0.00 in0.0 mm 0.00 in0.0 mm
11:40 PM 27.2°F-2.7°C 19.4°F-7.0°C 72% Calm Calm -- 30.15 in1021.0 mb - 0.00 in0.0 mm 0.00 in0.0 mm
11:50 PM 27.2°F-2.7°C 19.4°F-7.0°C 72% Calm Calm -- 30.15 in1021.0 mb - 0.00 in0.0 mm 0.00 in0.0 mm